sensor_id;sensor_type;location;lat;lon;timestamp;temperature;humidity
58153;DHT22;43967;51.634;5.566;2023-06-14T00:04:34;26.90;51.30
58153;DHT22;43967;51.634;5.566;2023-06-14T00:09:55;26.90;51.70
58153;DHT22;43967;51.634;5.566;2023-06-14T00:15:17;26.90;51.80
58153;DHT22;43967;51.634;5.566;2023-06-14T00:20:39;26.90;53.10
58153;DHT22;43967;51.634;5.566;2023-06-14T00:26:00;26.90;52.30
58153;DHT22;43967;51.634;5.566;2023-06-14T00:31:22;26.80;52.10
58153;DHT22;43967;51.634;5.566;2023-06-14T00:36:43;26.80;52.50
58153;DHT22;43967;51.634;5.566;2023-06-14T00:42:05;26.80;55.10
58153;DHT22;43967;51.634;5.566;2023-06-14T00:47:26;26.90;53.60
58153;DHT22;43967;51.634;5.566;2023-06-14T00:52:47;26.80;53.60
58153;DHT22;43967;51.634;5.566;2023-06-14T00:58:10;26.80;53.80
58153;DHT22;43967;51.634;5.566;2023-06-14T01:03:31;26.80;54.70
58153;DHT22;43967;51.634;5.566;2023-06-14T01:14:33;26.80;54.60
58153;DHT22;43967;51.634;5.566;2023-06-14T01:19:55;26.70;53.80
58153;DHT22;43967;51.634;5.566;2023-06-14T01:25:17;26.70;54.80
58153;DHT22;43967;51.634;5.566;2023-06-14T01:30:41;26.70;54.90
58153;DHT22;43967;51.634;5.566;2023-06-14T01:36:05;26.70;54.80
58153;DHT22;43967;51.634;5.566;2023-06-14T01:41:28;26.70;54.90
58153;DHT22;43967;51.634;5.566;2023-06-14T01:46:51;26.60;54.70
58153;DHT22;43967;51.634;5.566;2023-06-14T01:52:12;26.70;54.60
58153;DHT22;43967;51.634;5.566;2023-06-14T01:57:33;26.70;54.90
58153;DHT22;43967;51.634;5.566;2023-06-14T02:02:55;26.60;55.10
58153;DHT22;43967;51.634;5.566;2023-06-14T02:08:16;26.70;55.20
58153;DHT22;43967;51.634;5.566;2023-06-14T02:13:37;26.60;54.50
58153;DHT22;43967;51.634;5.566;2023-06-14T02:18:58;26.70;55.00
58153;DHT22;43967;51.634;5.566;2023-06-14T02:24:20;26.70;55.00
58153;DHT22;43967;51.634;5.566;2023-06-14T02:29:41;26.60;54.60
58153;DHT22;43967;51.634;5.566;2023-06-14T02:35:03;26.60;55.00
58153;DHT22;43967;51.634;5.566;2023-06-14T02:40:24;26.60;55.00
58153;DHT22;43967;51.634;5.566;2023-06-14T02:45:45;26.50;55.20
58153;DHT22;43967;51.634;5.566;2023-06-14T02:51:07;26.60;55.70
58153;DHT22;43967;51.634;5.566;2023-06-14T02:56:29;26.50;55.10
58153;DHT22;43967;51.634;5.566;2023-06-14T03:01:50;26.50;55.60
58153;DHT22;43967;51.634;5.566;2023-06-14T03:07:11;26.50;55.70
58153;DHT22;43967;51.634;5.566;2023-06-14T03:12:33;26.50;56.20
58153;DHT22;43967;51.634;5.566;2023-06-14T03:17:54;26.50;56.20
58153;DHT22;43967;51.634;5.566;2023-06-14T03:23:15;26.40;56.00
58153;DHT22;43967;51.634;5.566;2023-06-14T03:28:36;26.40;56.30
58153;DHT22;43967;51.634;5.566;2023-06-14T03:33:58;26.40;56.00
58153;DHT22;43967;51.634;5.566;2023-06-14T03:39:19;26.40;56.00
58153;DHT22;43967;51.634;5.566;2023-06-14T03:44:41;26.40;56.30
58153;DHT22;43967;51.634;5.566;2023-06-14T03:50:03;26.40;56.50
58153;DHT22;43967;51.634;5.566;2023-06-14T03:55:24;26.40;56.60
58153;DHT22;43967;51.634;5.566;2023-06-14T04:00:46;26.40;57.10
58153;DHT22;43967;51.634;5.566;2023-06-14T04:06:07;26.40;56.80
58153;DHT22;43967;51.634;5.566;2023-06-14T04:11:29;26.40;57.00
58153;DHT22;43967;51.634;5.566;2023-06-14T04:16:51;26.40;57.20
58153;DHT22;43967;51.634;5.566;2023-06-14T04:22:12;26.40;56.60
58153;DHT22;43967;51.634;5.566;2023-06-14T04:27:33;26.40;57.40
58153;DHT22;43967;51.634;5.566;2023-06-14T04:32:54;26.40;57.10
58153;DHT22;43967;51.634;5.566;2023-06-14T04:38:16;26.30;56.50
58153;DHT22;43967;51.634;5.566;2023-06-14T04:43:37;26.30;56.50
58153;DHT22;43967;51.634;5.566;2023-06-14T04:48:59;26.30;56.10
58153;DHT22;43967;51.634;5.566;2023-06-14T04:54:20;26.30;56.10
58153;DHT22;43967;51.634;5.566;2023-06-14T04:59:41;26.30;56.20
58153;DHT22;43967;51.634;5.566;2023-06-14T05:05:03;26.20;54.80
58153;DHT22;43967;51.634;5.566;2023-06-14T05:10:24;26.30;54.40
58153;DHT22;43967;51.634;5.566;2023-06-14T05:15:46;26.20;55.30
58153;DHT22;43967;51.634;5.566;2023-06-14T05:21:07;26.20;55.70
58153;DHT22;43967;51.634;5.566;2023-06-14T05:26:28;26.20;56.00
58153;DHT22;43967;51.634;5.566;2023-06-14T05:31:50;26.20;56.20
58153;DHT22;43967;51.634;5.566;2023-06-14T05:37:11;26.20;56.20
58153;DHT22;43967;51.634;5.566;2023-06-14T05:42:33;26.20;56.10
58153;DHT22;43967;51.634;5.566;2023-06-14T05:47:54;26.20;56.00
58153;DHT22;43967;51.634;5.566;2023-06-14T05:53:15;26.20;55.80
58153;DHT22;43967;51.634;5.566;2023-06-14T05:58:36;26.20;56.20
58153;DHT22;43967;51.634;5.566;2023-06-14T06:03:58;25.90;52.60
58153;DHT22;43967;51.634;5.566;2023-06-14T06:09:19;25.40;41.20
58153;DHT22;43967;51.634;5.566;2023-06-14T06:14:40;25.30;42.50
58153;DHT22;43967;51.634;5.566;2023-06-14T06:20:01;25.70;41.70
58153;DHT22;43967;51.634;5.566;2023-06-14T06:25:23;26.00;41.10
58153;DHT22;43967;51.634;5.566;2023-06-14T06:30:44;26.40;41.10
58153;DHT22;43967;51.634;5.566;2023-06-14T06:36:05;26.70;40.80
58153;DHT22;43967;51.634;5.566;2023-06-14T06:41:27;27.60;38.80
58153;DHT22;43967;51.634;5.566;2023-06-14T06:46:48;30.00;36.00
58153;DHT22;43967;51.634;5.566;2023-06-14T06:52:09;31.30;34.50
58153;DHT22;43967;51.634;5.566;2023-06-14T06:57:31;32.20;33.20
58153;DHT22;43967;51.634;5.566;2023-06-14T07:02:52;33.10;32.20
58153;DHT22;43967;51.634;5.566;2023-06-14T07:08:13;34.00;31.20
58153;DHT22;43967;51.634;5.566;2023-06-14T07:13:34;34.40;30.30
58153;DHT22;43967;51.634;5.566;2023-06-14T07:18:56;35.10;30.40
58153;DHT22;43967;51.634;5.566;2023-06-14T07:24:17;35.30;29.60
58153;DHT22;43967;51.634;5.566;2023-06-14T07:29:38;35.10;29.30
58153;DHT22;43967;51.634;5.566;2023-06-14T07:35:00;35.00;29.20
58153;DHT22;43967;51.634;5.566;2023-06-14T07:40:21;35.20;29.20
58153;DHT22;43967;51.634;5.566;2023-06-14T07:45:42;33.70;30.00
58153;DHT22;43967;51.634;5.566;2023-06-14T07:51:03;30.50;34.10
58153;DHT22;43967;51.634;5.566;2023-06-14T07:56:25;29.00;36.00
58153;DHT22;43967;51.634;5.566;2023-06-14T08:01:46;28.10;37.20
58153;DHT22;43967;51.634;5.566;2023-06-14T08:07:07;27.70;37.90
58153;DHT22;43967;51.634;5.566;2023-06-14T08:12:29;27.30;38.90
58153;DHT22;43967;51.634;5.566;2023-06-14T08:17:50;27.20;39.20
58153;DHT22;43967;51.634;5.566;2023-06-14T08:23:11;27.10;39.20
58153;DHT22;43967;51.634;5.566;2023-06-14T08:28:32;27.00;39.40
58153;DHT22;43967;51.634;5.566;2023-06-14T08:33:54;27.00;39.70
58153;DHT22;43967;51.634;5.566;2023-06-14T08:39:15;27.10;40.30
58153;DHT22;43967;51.634;5.566;2023-06-14T08:44:36;27.10;40.60
58153;DHT22;43967;51.634;5.566;2023-06-14T08:49:58;27.20;41.00
58153;DHT22;43967;51.634;5.566;2023-06-14T08:55:23;27.20;41.20
58153;DHT22;43967;51.634;5.566;2023-06-14T09:00:44;26.90;39.30
58153;DHT22;43967;51.634;5.566;2023-06-14T09:06:06;26.80;39.50
58153;DHT22;43967;51.634;5.566;2023-06-14T09:11:27;26.80;38.90
58153;DHT22;43967;51.634;5.566;2023-06-14T09:16:52;26.80;38.90
58153;DHT22;43967;51.634;5.566;2023-06-14T09:22:16;26.70;38.60
58153;DHT22;43967;51.634;5.566;2023-06-14T09:27:38;26.70;66.00
58153;DHT22;43967;51.634;5.566;2023-06-14T09:32:59;26.80;67.20
58153;DHT22;43967;51.634;5.566;2023-06-14T09:38:20;26.80;67.30
58153;DHT22;43967;51.634;5.566;2023-06-14T09:43:42;26.80;66.80
58153;DHT22;43967;51.634;5.566;2023-06-14T09:49:05;26.80;64.60
58153;DHT22;43967;51.634;5.566;2023-06-14T09:54:27;26.80;63.70
58153;DHT22;43967;51.634;5.566;2023-06-14T09:59:53;26.80;61.10
58153;DHT22;43967;51.634;5.566;2023-06-14T10:05:18;26.70;59.80
58153;DHT22;43967;51.634;5.566;2023-06-14T10:10:40;26.80;62.50
58153;DHT22;43967;51.634;5.566;2023-06-14T10:21:58;26.80;60.70
58153;DHT22;43967;51.634;5.566;2023-06-14T10:27:18;26.80;60.40
58153;DHT22;43967;51.634;5.566;2023-06-14T10:33:04;26.80;59.80
58153;DHT22;43967;51.634;5.566;2023-06-14T10:38:30;26.80;60.10
58153;DHT22;43967;51.634;5.566;2023-06-14T10:43:51;26.80;60.10
58153;DHT22;43967;51.634;5.566;2023-06-14T10:49:16;26.80;59.80
58153;DHT22;43967;51.634;5.566;2023-06-14T10:54:38;26.80;61.10
58153;DHT22;43967;51.634;5.566;2023-06-14T11:00:00;26.80;60.30
58153;DHT22;43967;51.634;5.566;2023-06-14T11:05:25;26.80;60.50
58153;DHT22;43967;51.634;5.566;2023-06-14T11:10:47;26.90;60.50
58153;DHT22;43967;51.634;5.566;2023-06-14T11:16:15;26.90;60.60
58153;DHT22;43967;51.634;5.566;2023-06-14T11:21:40;26.90;60.90
58153;DHT22;43967;51.634;5.566;2023-06-14T11:27:01;26.90;60.60
58153;DHT22;43967;51.634;5.566;2023-06-14T11:32:22;26.90;61.10
58153;DHT22;43967;51.634;5.566;2023-06-14T11:37:44;27.00;69.20
58153;DHT22;43967;51.634;5.566;2023-06-14T11:43:05;27.00;61.20
58153;DHT22;43967;51.634;5.566;2023-06-14T11:48:40;26.90;60.80
58153;DHT22;43967;51.634;5.566;2023-06-14T11:54:03;26.90;60.80
58153;DHT22;43967;51.634;5.566;2023-06-14T11:59:25;27.00;61.00
58153;DHT22;43967;51.634;5.566;2023-06-14T12:04:49;27.00;61.10
58153;DHT22;43967;51.634;5.566;2023-06-14T12:10:10;27.00;60.80
58153;DHT22;43967;51.634;5.566;2023-06-14T12:15:31;27.00;61.10
58153;DHT22;43967;51.634;5.566;2023-06-14T12:20:53;27.00;60.30
58153;DHT22;43967;51.634;5.566;2023-06-14T12:26:18;27.00;60.70
58153;DHT22;43967;51.634;5.566;2023-06-14T12:31:40;27.00;60.80
58153;DHT22;43967;51.634;5.566;2023-06-14T12:37:01;27.00;60.40
58153;DHT22;43967;51.634;5.566;2023-06-14T12:42:24;27.00;60.00
58153;DHT22;43967;51.634;5.566;2023-06-14T12:47:45;27.00;59.60
58153;DHT22;43967;51.634;5.566;2023-06-14T12:53:06;27.00;59.40
58153;DHT22;43967;51.634;5.566;2023-06-14T12:58:28;26.90;59.20
58153;DHT22;43967;51.634;5.566;2023-06-14T13:03:49;27.00;59.50
58153;DHT22;43967;51.634;5.566;2023-06-14T13:09:10;27.00;60.00
58153;DHT22;43967;51.634;5.566;2023-06-14T13:14:32;27.00;59.40
58153;DHT22;43967;51.634;5.566;2023-06-14T13:19:53;27.00;59.30
58153;DHT22;43967;51.634;5.566;2023-06-14T13:25:14;27.00;59.10
58153;DHT22;43967;51.634;5.566;2023-06-14T13:30:35;27.00;59.10
58153;DHT22;43967;51.634;5.566;2023-06-14T13:35:57;27.00;59.30
58153;DHT22;43967;51.634;5.566;2023-06-14T13:41:18;27.00;59.50
58153;DHT22;43967;51.634;5.566;2023-06-14T13:46:40;27.00;59.50
58153;DHT22;43967;51.634;5.566;2023-06-14T13:52:01;27.00;59.80
58153;DHT22;43967;51.634;5.566;2023-06-14T13:57:23;27.10;59.70
58153;DHT22;43967;51.634;5.566;2023-06-14T14:02:44;27.10;59.60
58153;DHT22;43967;51.634;5.566;2023-06-14T14:08:06;27.10;59.50
58153;DHT22;43967;51.634;5.566;2023-06-14T14:13:27;27.10;59.30
58153;DHT22;43967;51.634;5.566;2023-06-14T14:18:48;27.00;59.50
58153;DHT22;43967;51.634;5.566;2023-06-14T14:24:09;27.00;59.00
58153;DHT22;43967;51.634;5.566;2023-06-14T14:29:31;27.00;58.70
58153;DHT22;43967;51.634;5.566;2023-06-14T14:34:52;27.00;58.80
58153;DHT22;43967;51.634;5.566;2023-06-14T14:40:13;27.00;72.90
58153;DHT22;43967;51.634;5.566;2023-06-14T14:45:35;27.00;63.10
58153;DHT22;43967;51.634;5.566;2023-06-14T14:50:56;27.00;61.40
58153;DHT22;43967;51.634;5.566;2023-06-14T14:56:17;27.00;61.00
58153;DHT22;43967;51.634;5.566;2023-06-14T15:01:38;27.00;60.90
58153;DHT22;43967;51.634;5.566;2023-06-14T15:07:00;26.90;60.60
58153;DHT22;43967;51.634;5.566;2023-06-14T15:12:22;26.90;60.90
58153;DHT22;43967;51.634;5.566;2023-06-14T15:17:44;26.90;60.80
58153;DHT22;43967;51.634;5.566;2023-06-14T15:23:05;26.80;60.90
58153;DHT22;43967;51.634;5.566;2023-06-14T15:28:26;26.80;60.40
58153;DHT22;43967;51.634;5.566;2023-06-14T15:33:48;26.80;60.70
58153;DHT22;43967;51.634;5.566;2023-06-14T15:39:09;26.80;60.90
58153;DHT22;43967;51.634;5.566;2023-06-14T15:44:30;26.80;61.20
58153;DHT22;43967;51.634;5.566;2023-06-14T15:49:51;26.80;60.70
58153;DHT22;43967;51.634;5.566;2023-06-14T15:55:13;26.80;61.00
58153;DHT22;43967;51.634;5.566;2023-06-14T16:00:34;26.80;61.20
58153;DHT22;43967;51.634;5.566;2023-06-14T16:05:56;26.80;60.80
58153;DHT22;43967;51.634;5.566;2023-06-14T16:11:17;26.80;60.70
58153;DHT22;43967;51.634;5.566;2023-06-14T16:16:39;26.80;61.50
58153;DHT22;43967;51.634;5.566;2023-06-14T16:22:00;26.80;61.60
58153;DHT22;43967;51.634;5.566;2023-06-14T16:27:21;26.80;61.40
58153;DHT22;43967;51.634;5.566;2023-06-14T16:32:43;26.80;61.30
58153;DHT22;43967;51.634;5.566;2023-06-14T16:38:04;26.80;61.10
58153;DHT22;43967;51.634;5.566;2023-06-14T16:43:25;26.80;60.80
58153;DHT22;43967;51.634;5.566;2023-06-14T16:48:46;26.80;61.40
58153;DHT22;43967;51.634;5.566;2023-06-14T16:54:08;26.80;61.10
58153;DHT22;43967;51.634;5.566;2023-06-14T16:59:29;26.70;61.30
58153;DHT22;43967;51.634;5.566;2023-06-14T17:04:50;26.80;61.30
58153;DHT22;43967;51.634;5.566;2023-06-14T17:10:12;26.70;61.30
58153;DHT22;43967;51.634;5.566;2023-06-14T17:15:33;26.70;61.10
58153;DHT22;43967;51.634;5.566;2023-06-14T17:20:54;26.70;60.90
58153;DHT22;43967;51.634;5.566;2023-06-14T17:26:15;26.60;60.70
58153;DHT22;43967;51.634;5.566;2023-06-14T17:31:37;26.60;60.80
58153;DHT22;43967;51.634;5.566;2023-06-14T17:36:58;26.70;61.30
58153;DHT22;43967;51.634;5.566;2023-06-14T17:42:19;26.60;61.20
58153;DHT22;43967;51.634;5.566;2023-06-14T17:47:40;26.60;61.30
58153;DHT22;43967;51.634;5.566;2023-06-14T17:53:02;26.60;61.40
58153;DHT22;43967;51.634;5.566;2023-06-14T17:58:23;26.60;61.20
58153;DHT22;43967;51.634;5.566;2023-06-14T18:03:44;26.50;61.30
58153;DHT22;43967;51.634;5.566;2023-06-14T18:09:06;26.50;61.10
58153;DHT22;43967;51.634;5.566;2023-06-14T18:14:27;26.50;61.10
58153;DHT22;43967;51.634;5.566;2023-06-14T18:19:48;26.50;61.50
58153;DHT22;43967;51.634;5.566;2023-06-14T18:25:12;26.40;61.50
58153;DHT22;43967;51.634;5.566;2023-06-14T18:30:33;26.40;60.00
58153;DHT22;43967;51.634;5.566;2023-06-14T18:35:54;26.40;60.80
58153;DHT22;43967;51.634;5.566;2023-06-14T18:41:16;26.30;60.60
58153;DHT22;43967;51.634;5.566;2023-06-14T18:46:37;26.40;60.70
58153;DHT22;43967;51.634;5.566;2023-06-14T18:51:58;26.60;61.10
58153;DHT22;43967;51.634;5.566;2023-06-14T18:57:20;26.60;61.10
58153;DHT22;43967;51.634;5.566;2023-06-14T19:02:41;26.60;61.10
58153;DHT22;43967;51.634;5.566;2023-06-14T19:08:02;26.70;61.20
58153;DHT22;43967;51.634;5.566;2023-06-14T19:13:23;26.70;61.20
58153;DHT22;43967;51.634;5.566;2023-06-14T19:18:45;26.70;61.20
58153;DHT22;43967;51.634;5.566;2023-06-14T19:24:06;26.70;61.30
58153;DHT22;43967;51.634;5.566;2023-06-14T19:29:27;26.70;61.30
58153;DHT22;43967;51.634;5.566;2023-06-14T19:34:49;26.80;61.40
58153;DHT22;43967;51.634;5.566;2023-06-14T19:40:10;26.80;61.40
58153;DHT22;43967;51.634;5.566;2023-06-14T19:45:32;26.80;61.50
58153;DHT22;43967;51.634;5.566;2023-06-14T19:50:53;26.80;61.50
58153;DHT22;43967;51.634;5.566;2023-06-14T19:56:15;26.80;61.50
58153;DHT22;43967;51.634;5.566;2023-06-14T20:01:36;26.80;61.60
58153;DHT22;43967;51.634;5.566;2023-06-14T20:06:57;26.70;61.60
58153;DHT22;43967;51.634;5.566;2023-06-14T20:12:18;26.80;61.70
58153;DHT22;43967;51.634;5.566;2023-06-14T20:17:40;26.80;61.70
58153;DHT22;43967;51.634;5.566;2023-06-14T20:23:01;26.80;61.80
58153;DHT22;43967;51.634;5.566;2023-06-14T20:28:22;26.70;61.80
58153;DHT22;43967;51.634;5.566;2023-06-14T20:33:47;26.70;61.80
58153;DHT22;43967;51.634;5.566;2023-06-14T20:39:08;26.70;61.80
58153;DHT22;43967;51.634;5.566;2023-06-14T20:44:29;26.70;61.90
58153;DHT22;43967;51.634;5.566;2023-06-14T20:49:50;26.70;61.90
58153;DHT22;43967;51.634;5.566;2023-06-14T20:55:12;26.70;62.00
58153;DHT22;43967;51.634;5.566;2023-06-14T21:00:33;26.70;62.00
58153;DHT22;43967;51.634;5.566;2023-06-14T21:05:54;26.70;62.20
58153;DHT22;43967;51.634;5.566;2023-06-14T21:11:15;26.70;62.30
58153;DHT22;43967;51.634;5.566;2023-06-14T21:16:37;26.70;62.40
58153;DHT22;43967;51.634;5.566;2023-06-14T21:21:58;26.60;62.50
58153;DHT22;43967;51.634;5.566;2023-06-14T21:27:19;26.60;62.60
58153;DHT22;43967;51.634;5.566;2023-06-14T21:32:41;26.60;62.70
58153;DHT22;43967;51.634;5.566;2023-06-14T21:38:02;26.60;62.70
58153;DHT22;43967;51.634;5.566;2023-06-14T21:43:23;26.60;62.80
58153;DHT22;43967;51.634;5.566;2023-06-14T21:48:44;26.60;62.90
58153;DHT22;43967;51.634;5.566;2023-06-14T21:54:06;26.50;62.90
58153;DHT22;43967;51.634;5.566;2023-06-14T21:59:27;26.50;63.00
58153;DHT22;43967;51.634;5.566;2023-06-14T22:04:48;26.50;63.10
58153;DHT22;43967;51.634;5.566;2023-06-14T22:10:10;26.50;63.10
58153;DHT22;43967;51.634;5.566;2023-06-14T22:15:31;26.50;63.20
58153;DHT22;43967;51.634;5.566;2023-06-14T22:20:53;26.50;63.20
58153;DHT22;43967;51.634;5.566;2023-06-14T22:26:14;26.50;63.20
58153;DHT22;43967;51.634;5.566;2023-06-14T22:31:36;26.40;63.20
58153;DHT22;43967;51.634;5.566;2023-06-14T22:36:58;26.40;63.30
58153;DHT22;43967;51.634;5.566;2023-06-14T22:42:19;26.40;63.40
58153;DHT22;43967;51.634;5.566;2023-06-14T22:47:40;26.40;63.40
58153;DHT22;43967;51.634;5.566;2023-06-14T22:53:01;26.40;63.50
58153;DHT22;43967;51.634;5.566;2023-06-14T22:58:23;26.40;63.60
58153;DHT22;43967;51.634;5.566;2023-06-14T23:03:45;26.40;63.60
58153;DHT22;43967;51.634;5.566;2023-06-14T23:09:07;26.30;63.60
58153;DHT22;43967;51.634;5.566;2023-06-14T23:14:28;26.30;63.60
58153;DHT22;43967;51.634;5.566;2023-06-14T23:19:49;26.30;63.70
58153;DHT22;43967;51.634;5.566;2023-06-14T23:25:12;26.40;63.80
58153;DHT22;43967;51.634;5.566;2023-06-14T23:30:34;26.30;63.80
58153;DHT22;43967;51.634;5.566;2023-06-14T23:35:55;26.30;63.80
58153;DHT22;43967;51.634;5.566;2023-06-14T23:41:16;26.30;63.90
58153;DHT22;43967;51.634;5.566;2023-06-14T23:46:38;26.30;63.90
58153;DHT22;43967;51.634;5.566;2023-06-14T23:51:59;26.30;64.00
58153;DHT22;43967;51.634;5.566;2023-06-14T23:57:21;26.30;64.00
